createdAt,value
2023-12-08T00:02:01.399Z,93.93
2023-12-08T00:05:04.482Z,92.75
2023-12-08T00:08:06.278Z,93.91
2023-12-08T00:11:08.927Z,93.43
2023-12-08T00:14:10.774Z,94.17
2023-12-08T00:17:12.692Z,94.24
2023-12-08T00:20:14.693Z,93.34
2023-12-08T00:23:16.826Z,93.22
2023-12-08T00:26:18.715Z,93.78
2023-12-08T00:29:20.652Z,94.13
2023-12-08T00:32:22.450Z,93.95
2023-12-08T00:35:24.270Z,93.81
2023-12-08T00:38:26.029Z,93.23
2023-12-08T00:41:28.897Z,93.75
2023-12-08T00:44:30.799Z,93.39
2023-12-08T00:47:32.750Z,94.67
2023-12-08T00:50:34.670Z,94.37
2023-12-08T00:53:36.472Z,94.85
2023-12-08T00:56:38.270Z,94.55
2023-12-08T00:59:40.079Z,95.10
2023-12-08T01:02:41.933Z,95.79
2023-12-08T01:05:43.785Z,95.25
2023-12-08T01:08:45.613Z,93.84
2023-12-08T01:11:47.461Z,94.17
2023-12-08T01:14:49.363Z,95.19
2023-12-08T01:17:51.276Z,94.84
2023-12-08T01:20:55.226Z,94.56
2023-12-08T01:23:57.000Z,93.63
2023-12-08T01:26:58.833Z,94.91
2023-12-08T01:30:00.854Z,94.15
2023-12-08T01:33:04.674Z,93.83
2023-12-08T01:36:38.586Z,94.19
2023-12-08T01:39:28.713Z,92.20
2023-12-08T01:42:30.576Z,91.76
2023-12-08T01:45:32.335Z,91.94
2023-12-08T01:48:34.283Z,92.91
2023-12-08T01:51:36.230Z,93.81
2023-12-08T01:54:38.121Z,93.70
2023-12-08T01:57:40.023Z,93.57
2023-12-08T02:00:46.882Z,93.13
2023-12-08T02:03:52.160Z,91.95
2023-12-08T02:06:55.984Z,91.40
2023-12-08T02:09:57.800Z,91.38
2023-12-08T02:13:00.719Z,92.01
2023-12-08T02:16:25.513Z,93.23
2023-12-08T02:19:28.438Z,93.81
2023-12-08T02:22:30.307Z,94.34
2023-12-08T02:25:32.127Z,93.64
2023-12-08T02:28:33.918Z,93.36
2023-12-08T02:31:44.977Z,94.19
2023-12-08T02:34:50.058Z,93.64
2023-12-08T02:37:56.169Z,92.67
2023-12-08T02:40:58.457Z,93.36
2023-12-08T02:44:00.304Z,93.88
2023-12-08T02:47:02.171Z,93.68
2023-12-08T02:50:04.620Z,94.14
2023-12-08T02:53:06.402Z,93.36
2023-12-08T02:56:08.584Z,93.41
2023-12-08T02:59:10.336Z,93.98
2023-12-08T03:02:12.178Z,93.12
2023-12-08T03:05:14.071Z,93.67
2023-12-08T03:08:15.886Z,93.61
2023-12-08T03:11:17.689Z,93.77
2023-12-08T03:14:19.424Z,94.27
2023-12-08T03:17:21.219Z,94.50
2023-12-08T03:20:23.017Z,93.69
2023-12-08T03:23:24.826Z,93.87
2023-12-08T03:26:26.649Z,93.49
2023-12-08T03:29:28.380Z,93.74
2023-12-08T03:32:30.353Z,94.40
2023-12-08T03:35:32.143Z,93.84
2023-12-08T03:38:33.979Z,94.35
2023-12-08T03:41:35.841Z,94.46
2023-12-08T03:44:37.706Z,94.24
2023-12-08T03:47:39.784Z,93.79
2023-12-08T03:50:41.742Z,93.69
2023-12-08T03:53:43.604Z,94.69
2023-12-08T03:56:45.469Z,94.67
2023-12-08T03:59:47.365Z,94.40
2023-12-08T04:02:49.714Z,94.52
2023-12-08T04:05:52.100Z,95.05
2023-12-08T04:08:54.050Z,94.42
2023-12-08T04:11:55.953Z,95.34
2023-12-08T04:14:57.776Z,95.29
2023-12-08T04:18:00.218Z,95.59
2023-12-08T04:21:02.206Z,95.02
2023-12-08T04:24:04.167Z,94.48
2023-12-08T04:27:06.286Z,95.02
2023-12-08T04:30:08.700Z,95.35
2023-12-08T04:33:10.848Z,95.73
2023-12-08T04:36:12.855Z,94.19
2023-12-08T04:39:14.771Z,93.80
2023-12-08T04:42:17.052Z,93.54
2023-12-08T04:45:18.913Z,93.31
2023-12-08T04:48:20.874Z,94.17
2023-12-08T04:51:22.724Z,94.81
2023-12-08T04:54:24.654Z,94.26
2023-12-08T04:57:26.613Z,94.74
2023-12-08T05:00:28.887Z,94.41
2023-12-08T05:03:30.698Z,94.42
2023-12-08T05:06:32.837Z,94.90
2023-12-08T05:09:34.743Z,94.19
2023-12-08T05:12:36.543Z,95.00
2023-12-08T05:15:38.410Z,95.20
2023-12-08T05:18:40.739Z,94.82
2023-12-08T05:21:42.676Z,94.73
2023-12-08T05:24:44.426Z,94.73
2023-12-08T05:27:46.725Z,94.08
2023-12-08T05:30:48.721Z,94.64
2023-12-08T05:33:50.618Z,95.41
2023-12-08T05:36:52.454Z,95.44
2023-12-08T05:39:54.520Z,96.32
2023-12-08T05:42:56.272Z,94.32
2023-12-08T05:45:58.107Z,94.75
2023-12-08T05:49:00.047Z,96.15
2023-12-08T05:52:01.930Z,95.24
2023-12-08T05:55:04.179Z,94.17
2023-12-08T05:58:06.016Z,95.33
2023-12-08T06:01:07.880Z,94.12
2023-12-08T06:04:09.642Z,94.17
2023-12-08T06:07:12.361Z,94.16
2023-12-08T06:10:14.372Z,95.67
2023-12-08T06:13:16.146Z,95.16
2023-12-08T06:16:18.833Z,94.92
2023-12-08T06:19:20.926Z,93.56
2023-12-08T06:22:22.810Z,93.12
2023-12-08T06:25:24.704Z,93.13
2023-12-08T06:28:26.435Z,92.42
2023-12-08T06:31:28.230Z,92.92
2023-12-08T06:34:30.311Z,92.60
2023-12-08T06:37:32.202Z,92.21
2023-12-08T06:40:34.057Z,92.29
2023-12-08T06:43:35.985Z,93.24
2023-12-08T06:46:37.796Z,92.78
2023-12-08T06:49:39.762Z,93.36
2023-12-08T06:52:41.683Z,93.15
2023-12-08T06:55:44.557Z,93.04
2023-12-08T06:58:46.294Z,92.36
2023-12-08T07:01:48.092Z,92.37
2023-12-08T07:04:50.021Z,91.64
2023-12-08T07:07:52.100Z,92.54
2023-12-08T07:10:54.046Z,92.44
2023-12-08T07:13:55.844Z,92.26
2023-12-08T07:16:57.668Z,91.60
2023-12-08T07:19:59.536Z,91.70
2023-12-08T07:23:02.622Z,91.00
2023-12-08T07:26:06.012Z,90.82
2023-12-08T07:29:07.810Z,90.82
2023-12-08T07:32:09.712Z,91.20
2023-12-08T07:35:11.497Z,90.97
2023-12-08T07:38:13.368Z,91.05
2023-12-08T07:41:15.252Z,91.14
2023-12-08T07:44:17.017Z,92.10
2023-12-08T07:47:18.878Z,91.43
2023-12-08T07:50:20.701Z,90.88
2023-12-08T07:53:23.012Z,90.77
2023-12-08T07:56:24.848Z,91.05
2023-12-08T07:59:27.108Z,91.37
2023-12-08T08:02:29.129Z,90.67
2023-12-08T08:05:31.088Z,90.27
2023-12-08T08:08:34.423Z,90.70
2023-12-08T08:11:36.417Z,90.26
2023-12-08T08:14:39.924Z,90.34
2023-12-08T08:17:41.959Z,91.03
2023-12-08T08:20:43.817Z,91.22
2023-12-08T08:23:45.675Z,91.30
2023-12-08T08:26:48.218Z,91.58
2023-12-08T08:29:50.103Z,91.37
2023-12-08T08:32:52.029Z,90.55
2023-12-08T08:35:53.874Z,89.64
2023-12-08T08:38:55.717Z,89.93
2023-12-08T08:41:57.705Z,90.49
2023-12-08T08:44:59.506Z,90.41
2023-12-08T08:48:01.597Z,90.94
2023-12-08T08:51:03.752Z,90.66
2023-12-08T08:54:06.659Z,90.25
2023-12-08T08:57:08.497Z,90.28
2023-12-08T09:00:13.563Z,90.55
2023-12-08T09:03:15.609Z,90.89
2023-12-08T09:06:17.590Z,90.01
2023-12-08T09:09:19.508Z,89.72
2023-12-08T09:12:21.319Z,89.18
2023-12-08T09:15:23.386Z,89.83
2023-12-08T09:18:25.348Z,88.97
2023-12-08T09:21:27.197Z,89.50
2023-12-08T09:24:29.026Z,90.09
2023-12-08T09:27:30.854Z,90.04
2023-12-08T09:30:32.957Z,89.46
2023-12-08T09:33:34.920Z,89.68
2023-12-08T09:36:37.273Z,89.98
2023-12-08T09:39:39.464Z,89.04
2023-12-08T09:42:46.828Z,90.02
2023-12-08T09:45:49.286Z,90.30
2023-12-08T09:48:57.189Z,89.78
2023-12-08T09:52:00.760Z,91.30
2023-12-08T09:55:04.556Z,90.28
2023-12-08T09:58:08.487Z,89.84
2023-12-08T10:01:14.604Z,90.22
2023-12-08T10:04:16.998Z,88.70
2023-12-08T10:07:21.438Z,88.37
2023-12-08T10:10:25.431Z,88.14
2023-12-08T10:13:27.342Z,88.15
2023-12-08T10:16:29.145Z,87.00
2023-12-08T10:19:31.054Z,86.96
2023-12-08T10:22:43.455Z,88.18
2023-12-08T10:25:48.230Z,86.73
2023-12-08T10:28:55.304Z,86.67
2023-12-08T10:31:58.996Z,86.57
2023-12-08T10:35:00.910Z,87.75
2023-12-08T10:38:03.398Z,86.50
2023-12-08T10:41:06.212Z,87.13
2023-12-08T10:44:09.852Z,86.92
2023-12-08T10:47:11.645Z,86.51
2023-12-08T10:50:14.155Z,86.16
2023-12-08T10:53:17.947Z,87.27
2023-12-08T10:56:22.730Z,84.98
2023-12-08T10:59:32.632Z,86.00
2023-12-08T11:02:36.592Z,85.16
2023-12-08T11:05:49.253Z,85.12
2023-12-08T11:08:57.380Z,84.82
2023-12-08T11:12:04.585Z,84.48
2023-12-08T11:15:17.475Z,85.16
2023-12-08T11:18:28.286Z,84.82
2023-12-08T11:21:30.744Z,85.32
2023-12-08T11:24:32.859Z,84.75
2023-12-08T11:27:45.266Z,83.77
2023-12-08T11:30:58.984Z,84.18
2023-12-08T11:34:14.918Z,84.14
2023-12-08T11:37:17.776Z,83.73
2023-12-08T11:40:19.717Z,84.21
2023-12-08T11:43:21.771Z,83.05
2023-12-08T11:46:23.537Z,84.24
2023-12-08T11:49:26.167Z,83.66
2023-12-08T11:52:30.355Z,85.21
2023-12-08T11:55:35.903Z,84.72
2023-12-08T11:58:40.642Z,84.32
2023-12-08T12:01:43.932Z,83.38
2023-12-08T12:04:45.772Z,83.48
2023-12-08T12:07:52.350Z,82.76
2023-12-08T12:11:02.262Z,83.29
2023-12-08T12:14:08.683Z,83.57
2023-12-08T12:17:13.958Z,83.49
2023-12-08T12:20:15.976Z,84.37
2023-12-08T12:23:20.390Z,84.06
2023-12-08T12:26:22.444Z,83.71
2023-12-08T12:29:24.907Z,84.00
2023-12-08T12:32:27.515Z,84.87
2023-12-08T12:35:29.348Z,83.18
2023-12-08T12:38:31.204Z,82.92
2023-12-08T12:41:33.078Z,83.54
2023-12-08T12:44:46.963Z,84.50
2023-12-08T12:47:49.018Z,83.91
2023-12-08T12:50:55.819Z,83.64
2023-12-08T12:53:57.698Z,85.27
2023-12-08T12:57:00.905Z,84.28
2023-12-08T13:00:03.540Z,83.93
2023-12-08T13:03:13.721Z,84.90
2023-12-08T13:06:30.302Z,84.98
2023-12-08T13:09:33.652Z,85.06
2023-12-08T13:12:36.163Z,85.73
2023-12-08T13:15:37.949Z,84.83
2023-12-08T13:18:49.960Z,84.11
2023-12-08T13:21:51.832Z,85.36
2023-12-08T13:24:54.056Z,84.76
2023-12-08T13:27:55.883Z,84.23
2023-12-08T13:30:57.662Z,84.29
2023-12-08T13:33:59.792Z,84.37
2023-12-08T13:37:03.367Z,84.92
2023-12-08T13:40:06.027Z,85.17
2023-12-08T13:43:07.857Z,84.29
2023-12-08T13:46:09.751Z,84.83
2023-12-08T13:49:11.696Z,85.13
2023-12-08T13:52:13.957Z,85.01
2023-12-08T13:55:15.785Z,86.02
2023-12-08T13:58:17.638Z,85.85
2023-12-08T14:01:20.574Z,85.22
2023-12-08T14:04:22.609Z,85.88
2023-12-08T14:07:26.736Z,85.88
2023-12-08T14:10:28.741Z,85.30
2023-12-08T14:13:30.566Z,85.76
2023-12-08T14:16:32.444Z,86.35
2023-12-08T14:19:34.410Z,85.64
2023-12-08T14:22:36.350Z,86.54
2023-12-08T14:25:38.188Z,86.10
2023-12-08T14:28:39.964Z,86.89
2023-12-08T14:31:41.743Z,86.63
2023-12-08T14:34:43.755Z,86.88
2023-12-08T14:37:46.221Z,87.21
2023-12-08T14:40:50.036Z,87.49
2023-12-08T14:43:52.084Z,87.23
2023-12-08T14:46:53.893Z,87.63
2023-12-08T14:49:55.793Z,87.49
2023-12-08T14:52:57.909Z,87.16
2023-12-08T14:56:00.525Z,87.37
2023-12-08T14:59:02.459Z,88.04
2023-12-08T15:02:04.770Z,88.49
2023-12-08T15:05:07.400Z,87.83
2023-12-08T15:08:09.185Z,88.26
2023-12-08T15:11:11.342Z,88.12
2023-12-08T15:14:13.157Z,88.00
2023-12-08T15:17:14.925Z,88.03
2023-12-08T15:20:16.693Z,87.67
2023-12-08T15:23:19.501Z,87.47
2023-12-08T15:26:21.814Z,87.87
2023-12-08T15:29:23.606Z,88.45
2023-12-08T15:32:25.395Z,88.22
2023-12-08T15:35:27.191Z,87.88
2023-12-08T15:38:29.019Z,87.44
2023-12-08T15:41:30.856Z,86.68
2023-12-08T15:44:32.662Z,86.86
2023-12-08T15:47:34.691Z,86.66
2023-12-08T15:50:38.839Z,86.20
2023-12-08T15:53:43.786Z,86.93
2023-12-08T15:56:45.804Z,86.20
2023-12-08T15:59:47.696Z,86.48
2023-12-08T16:02:49.549Z,86.16
2023-12-08T16:05:51.468Z,85.88
2023-12-08T16:08:54.165Z,86.09
2023-12-08T16:11:56.153Z,85.93
2023-12-08T16:14:58.032Z,85.47
2023-12-08T16:18:01.171Z,84.28
2023-12-08T16:21:03.388Z,83.65
2023-12-08T16:24:05.641Z,84.84
2023-12-08T16:27:09.619Z,84.46
2023-12-08T16:30:12.319Z,84.07
2023-12-08T16:33:14.314Z,84.44
2023-12-08T16:36:16.260Z,83.05
2023-12-08T16:39:19.469Z,83.52
2023-12-08T16:42:21.726Z,83.86
2023-12-08T16:45:23.653Z,83.20
2023-12-08T16:48:26.176Z,84.48
2023-12-08T16:51:28.115Z,82.67
2023-12-08T16:54:30.156Z,83.39
2023-12-08T16:57:32.128Z,83.16
2023-12-08T17:00:33.984Z,83.97
2023-12-08T17:03:35.914Z,83.37
2023-12-08T17:06:37.848Z,83.37
2023-12-08T17:09:39.759Z,84.20
2023-12-08T17:12:41.546Z,83.07
2023-12-08T17:15:43.639Z,83.38
2023-12-08T17:18:45.625Z,82.98
2023-12-08T17:21:48.245Z,82.21
2023-12-08T17:24:50.149Z,81.45
2023-12-08T17:27:51.985Z,81.25
2023-12-08T17:30:54.818Z,82.25
2023-12-08T17:34:04.753Z,80.80
2023-12-08T17:37:15.025Z,82.36
2023-12-08T17:40:16.865Z,81.90
2023-12-08T17:43:18.688Z,82.62
2023-12-08T17:46:20.633Z,82.85
2023-12-08T17:49:22.516Z,83.80
2023-12-08T17:52:25.078Z,83.12
2023-12-08T17:55:27.339Z,82.76
2023-12-08T17:58:29.084Z,83.05
2023-12-08T18:01:30.949Z,83.40
2023-12-08T18:04:32.733Z,84.47
2023-12-08T18:07:35.059Z,84.06
2023-12-08T18:10:36.881Z,84.13
2023-12-08T18:13:38.707Z,85.76
2023-12-08T18:16:48.265Z,86.56
2023-12-08T18:19:52.192Z,86.28
2023-12-08T18:22:54.013Z,86.99
2023-12-08T18:25:55.847Z,86.30
2023-12-08T18:29:08.232Z,86.96
2023-12-08T18:32:11.681Z,86.85
2023-12-08T18:35:13.446Z,87.32
2023-12-08T18:38:15.176Z,87.03
2023-12-08T18:41:17.880Z,87.20
2023-12-08T18:44:19.932Z,87.41
2023-12-08T18:47:22.055Z,86.74
2023-12-08T18:50:24.109Z,87.57
2023-12-08T18:53:26.153Z,87.75
2023-12-08T18:56:28.038Z,87.51
2023-12-08T18:59:30.117Z,87.58
2023-12-08T19:02:32.028Z,87.89
2023-12-08T19:05:36.765Z,87.67
2023-12-08T19:08:38.563Z,87.74
2023-12-08T19:11:40.512Z,87.37
2023-12-08T19:14:42.389Z,87.89
2023-12-08T19:17:44.321Z,88.64
2023-12-08T19:20:47.795Z,88.64
2023-12-08T19:23:49.646Z,89.22
2023-12-08T19:26:52.909Z,88.52
2023-12-08T19:29:54.744Z,89.36
2023-12-08T19:32:56.648Z,88.65
2023-12-08T19:35:58.658Z,88.41
2023-12-08T19:39:01.111Z,88.31
2023-12-08T19:42:03.713Z,88.43
2023-12-08T19:45:06.664Z,87.88
2023-12-08T19:48:08.651Z,88.30
2023-12-08T19:51:10.548Z,88.53
2023-12-08T19:54:12.512Z,88.40
2023-12-08T19:57:16.248Z,88.94
2023-12-08T20:00:18.634Z,88.54
2023-12-08T20:03:20.604Z,88.90
2023-12-08T20:06:23.083Z,89.40
2023-12-08T20:09:24.970Z,88.85
2023-12-08T20:12:28.151Z,89.66
2023-12-08T20:15:29.990Z,88.77
2023-12-08T20:18:31.908Z,88.74
2023-12-08T20:21:33.845Z,88.21
2023-12-08T20:24:38.032Z,88.70
2023-12-08T20:27:39.850Z,89.33
2023-12-08T20:30:41.834Z,89.66
2023-12-08T20:33:43.768Z,88.90
2023-12-08T20:36:50.102Z,88.27
2023-12-08T20:39:51.873Z,89.14
2023-12-08T20:42:53.643Z,87.50
2023-12-08T20:45:59.739Z,88.18
2023-12-08T20:49:01.658Z,87.75
2023-12-08T20:52:04.418Z,87.78
2023-12-08T20:55:06.288Z,88.59
2023-12-08T20:58:08.108Z,89.60
2023-12-08T21:01:10.977Z,89.25
2023-12-08T21:04:12.903Z,88.83
2023-12-08T21:07:14.913Z,88.53
2023-12-08T21:10:16.731Z,88.99
2023-12-08T21:13:19.322Z,88.41
2023-12-08T21:16:23.420Z,86.67
2023-12-08T21:19:26.114Z,86.95
2023-12-08T21:22:28.445Z,86.72
2023-12-08T21:25:31.421Z,86.37
2023-12-08T21:28:33.207Z,85.29
2023-12-08T21:31:34.995Z,86.12
2023-12-08T21:34:36.975Z,86.46
2023-12-08T21:37:39.704Z,87.21
2023-12-08T21:40:41.534Z,87.66
2023-12-08T21:43:43.304Z,87.30
2023-12-08T21:46:45.159Z,86.75
2023-12-08T21:49:46.983Z,85.80
2023-12-08T21:52:51.685Z,87.11
2023-12-08T21:55:54.977Z,86.39
2023-12-08T21:58:56.769Z,86.14
2023-12-08T22:01:58.601Z,87.55
2023-12-08T22:05:00.428Z,87.42
2023-12-08T22:08:02.282Z,87.50
2023-12-08T22:11:04.319Z,87.66
2023-12-08T22:14:06.150Z,88.78
2023-12-08T22:17:07.945Z,88.42
2023-12-08T22:20:10.086Z,87.50
2023-12-08T22:23:11.922Z,87.64
2023-12-08T22:26:13.948Z,88.61
2023-12-08T22:29:15.769Z,89.11
2023-12-08T22:32:17.661Z,89.05
2023-12-08T22:35:19.400Z,88.75
2023-12-08T22:38:21.631Z,88.76
2023-12-08T22:41:23.430Z,87.97
2023-12-08T22:44:25.375Z,87.83
2023-12-08T22:47:27.484Z,87.04
2023-12-08T22:50:38.700Z,88.09
2023-12-08T22:53:48.084Z,86.43
2023-12-08T22:56:50.101Z,86.81
2023-12-08T22:59:52.230Z,87.04
2023-12-08T23:02:55.097Z,85.99
2023-12-08T23:05:56.946Z,86.50
2023-12-08T23:08:58.797Z,86.18
2023-12-08T23:12:00.687Z,86.08
2023-12-08T23:15:04.449Z,85.70
2023-12-08T23:18:06.398Z,86.55
2023-12-08T23:21:08.277Z,85.58
2023-12-08T23:24:10.250Z,86.21
2023-12-08T23:27:12.601Z,86.04
2023-12-08T23:30:15.273Z,86.60
2023-12-08T23:33:17.240Z,87.11
2023-12-08T23:36:19.727Z,86.69
2023-12-08T23:39:21.533Z,86.86
2023-12-08T23:42:23.730Z,87.12
2023-12-08T23:45:25.726Z,87.74
2023-12-08T23:48:27.687Z,88.65
2023-12-08T23:51:29.618Z,88.04
2023-12-08T23:54:31.464Z,88.06
2023-12-08T23:57:33.353Z,88.80
